Time;durP1;ratioP1;P1;durP2;ratioP2;P2;SDS_P1;SDS_P2;PMS_P1;PMS_P2;Temp;Humidity;BMP_temperature;BMP_pressure;BME280_temperature;BME280_humidity;BME280_pressure;Samples;Min_cycle;Max_cycle;Signal;HPM_P1;HPM_P2
2022/08/21 00:01:11;;;;;;;2.73;1.30;;;18.40;99.90;;;;;;5012355;28;20194;-77
2022/08/21 00:03:37;;;;;;;3.37;1.43;;;18.50;99.90;;;;;;5011662;28;20201;-76
2022/08/21 00:06:02;;;;;;;6.47;1.30;;;18.50;99.90;;;;;;4994381;28;20443;-76
2022/08/21 00:08:28;;;;;;;4.33;1.73;;;18.50;99.90;;;;;;5011697;28;20688;-76
2022/08/21 00:10:54;;;;;;;7.00;1.70;;;18.50;99.90;;;;;;5011670;28;20282;-76
2022/08/21 00:13:20;;;;;;;4.10;1.50;;;18.50;99.90;;;;;;5011452;28;20481;-75
2022/08/21 00:15:47;;;;;;;2.60;1.70;;;18.50;99.90;;;;;;4993855;28;20275;-76
2022/08/21 00:18:15;;;;;;;7.50;1.67;;;18.50;99.90;;;;;;5011611;28;20207;-76
2022/08/21 00:20:42;;;;;;;2.13;1.40;;;18.50;99.90;;;;;;4994189;28;20485;-74
2022/08/21 00:23:08;;;;;;;3.93;1.40;;;18.50;99.90;;;;;;5011119;28;20465;-76
2022/08/21 00:25:34;;;;;;;2.83;1.80;;;18.50;99.90;;;;;;4993443;28;20979;-76
2022/08/21 00:28:01;;;;;;;3.30;1.40;;;18.60;99.90;;;;;;4993694;28;20514;-75
2022/08/21 00:30:28;;;;;;;3.93;1.33;;;18.50;99.90;;;;;;4993440;28;21009;-76
2022/08/21 00:32:55;;;;;;;3.77;1.57;;;18.50;99.90;;;;;;5011772;28;20431;-77
2022/08/21 00:35:27;;;;;;;5.60;1.67;;;18.40;99.90;;;;;;5011381;28;20827;-77
2022/08/21 00:37:52;;;;;;;2.80;1.30;;;18.30;99.90;;;;;;4993413;28;20996;-77
2022/08/21 00:40:24;;;;;;;4.90;1.80;;;18.30;99.90;;;;;;5010965;28;20420;-76
2022/08/21 00:42:49;;;;;;;14.00;1.70;;;18.00;99.90;;;;;;5011125;28;20207;-76
2022/08/21 00:45:16;;;;;;;4.00;1.80;;;17.80;99.90;;;;;;4992998;28;21061;-76
2022/08/21 00:47:41;;;;;;;3.97;1.73;;;17.70;99.90;;;;;;5010917;28;20258;-76
2022/08/21 00:50:13;;;;;;;2.30;1.57;;;17.60;99.90;;;;;;5010819;28;20471;-76
2022/08/21 00:52:41;;;;;;;7.13;1.83;;;17.40;99.90;;;;;;5010844;28;20291;-75
2022/08/21 00:55:09;;;;;;;1.57;1.47;;;17.30;99.90;;;;;;5010760;28;20443;-75
2022/08/21 00:57:48;;;;;;;5.60;1.87;;;17.20;99.90;;;;;;5010576;28;20828;-75
2022/08/21 01:00:19;;;;;;;5.20;1.80;;;17.10;99.90;;;;;;5010739;28;20515;-75
2022/08/21 01:02:45;;;;;;;1.87;1.67;;;17.00;99.90;;;;;;5010303;28;20466;-76
2022/08/21 01:05:11;;;;;;;2.40;1.40;;;17.00;99.90;;;;;;5010383;28;20427;-75
2022/08/21 01:07:37;;;;;;;5.50;1.33;;;16.90;99.90;;;;;;4992666;28;20429;-75
2022/08/21 01:10:06;;;;;;;4.17;1.50;;;16.90;99.90;;;;;;4992618;28;20888;-76
2022/08/21 01:12:33;;;;;;;7.17;1.87;;;16.90;99.90;;;;;;5010242;28;20700;-76
2022/08/21 01:15:00;;;;;;;11.87;2.10;;;16.90;99.90;;;;;;5010323;28;20430;-76
2022/08/21 01:17:27;;;;;;;3.83;1.87;;;16.80;99.90;;;;;;4992899;28;20427;-75
2022/08/21 01:19:57;;;;;;;4.67;1.67;;;16.80;99.90;;;;;;5010240;28;20418;-76
2022/08/21 01:22:22;;;;;;;2.63;1.73;;;16.80;99.90;;;;;;5010022;28;20427;-75
2022/08/21 01:24:49;;;;;;;6.63;1.83;;;16.80;99.90;;;;;;4992509;28;20427;-75
2022/08/21 01:27:15;;;;;;;3.53;1.57;;;16.70;99.90;;;;;;5010131;28;20188;-75
2022/08/21 01:30:03;;;;;;;5.57;2.37;;;16.70;99.90;;;;;;5009857;28;21047;-75
2022/08/21 01:32:29;;;;;;;4.67;1.83;;;16.80;99.90;;;;;;5009764;28;20904;-75
2022/08/21 01:34:55;;;;;;;4.63;2.40;;;16.70;99.90;;;;;;5010002;28;20534;-75
2022/08/21 01:37:21;;;;;;;5.23;1.90;;;16.80;99.90;;;;;;4991544;28;20176;-75
2022/08/21 01:39:47;;;;;;;4.70;1.57;;;16.80;99.90;;;;;;5009738;28;20260;-75
2022/08/21 01:42:14;;;;;;;4.83;1.90;;;16.90;99.90;;;;;;5009582;28;20561;-76
2022/08/21 01:44:39;;;;;;;4.57;2.00;;;16.80;99.90;;;;;;5009768;28;20476;-75
2022/08/21 01:47:08;;;;;;;5.03;1.90;;;16.70;99.90;;;;;;5009713;28;20932;-74
2022/08/21 01:49:35;;;;;;;3.70;1.87;;;16.70;99.90;;;;;;5009690;28;20466;-75
2022/08/21 01:52:01;;;;;;;3.00;1.87;;;16.70;99.90;;;;;;4991938;28;20438;-75
2022/08/21 01:54:27;;;;;;;2.93;1.70;;;16.60;99.90;;;;;;5009633;28;20426;-75
2022/08/21 01:56:54;;;;;;;4.77;2.17;;;16.50;99.90;;;;;;5009576;28;20423;-75
2022/08/21 01:59:21;;;;;;;7.77;2.10;;;16.50;99.90;;;;;;5009484;28;20525;-75
2022/08/21 02:01:48;;;;;;;5.80;1.87;;;16.50;99.90;;;;;;5009238;28;20474;-75
2022/08/21 02:04:14;;;;;;;4.10;1.77;;;16.50;99.90;;;;;;4991530;28;20457;-75
2022/08/21 02:06:40;;;;;;;3.53;1.50;;;16.40;99.90;;;;;;5009549;28;20927;-75
2022/08/21 02:09:08;;;;;;;3.70;1.70;;;16.30;99.90;;;;;;5009200;28;20464;-75
2022/08/21 02:11:35;;;;;;;2.90;1.83;;;16.30;99.90;;;;;;5009290;28;20418;-73
2022/08/21 02:14:01;;;;;;;3.53;1.63;;;16.30;99.90;;;;;;5009487;28;20430;-74
2022/08/21 02:16:27;;;;;;;7.40;2.10;;;16.30;99.90;;;;;;5009415;28;20423;-74
2022/08/21 02:18:52;;;;;;;6.00;1.90;;;16.20;99.90;;;;;;5009292;28;20610;-74
2022/08/21 02:21:18;;;;;;;2.60;1.97;;;16.10;99.90;;;;;;4992088;28;20628;-74
2022/08/21 02:23:44;;;;;;;3.43;1.73;;;16.00;99.90;;;;;;5009100;28;20253;-75
2022/08/21 02:26:11;;;;;;;2.27;1.93;;;15.80;99.90;;;;;;5009297;28;20669;-75
2022/08/21 02:28:38;;;;;;;3.63;1.53;;;15.80;99.90;;;;;;5008986;28;20425;-75
2022/08/21 02:31:04;;;;;;;9.93;2.60;;;15.80;99.90;;;;;;5009157;28;20416;-75
2022/08/21 02:33:30;;;;;;;6.40;2.27;;;15.80;99.90;;;;;;5008931;28;20440;-75
2022/08/21 02:35:57;;;;;;;7.03;2.70;;;15.90;99.90;;;;;;5008956;28;20427;-75
2022/08/21 02:38:25;;;;;;;4.13;2.03;;;15.90;99.90;;;;;;5008972;28;20419;-75
2022/08/21 02:40:52;;;;;;;3.67;1.80;;;15.90;99.90;;;;;;5008898;28;21106;-75
2022/08/21 02:43:20;;;;;;;10.30;2.20;;;15.90;99.90;;;;;;5008874;28;20450;-75
2022/08/21 02:45:47;;;;;;;5.87;1.63;;;15.70;99.90;;;;;;4974883;28;20432;-75
2022/08/21 02:48:17;;;;;;;6.53;2.40;;;15.50;99.90;;;;;;5008841;28;20410;-75
2022/08/21 02:50:52;;;;;;;4.33;2.17;;;15.60;99.90;;;;;;5008613;28;20557;-75
2022/08/21 02:53:19;;;;;;;3.67;2.00;;;15.50;99.90;;;;;;5008807;28;20437;-75
2022/08/21 02:55:47;;;;;;;2.57;1.90;;;15.50;99.90;;;;;;5008909;28;20429;-75
2022/08/21 02:58:14;;;;;;;3.23;2.30;;;15.50;99.90;;;;;;5008839;28;20444;-76
2022/08/21 03:00:41;;;;;;;3.63;1.70;;;15.50;99.90;;;;;;5008846;28;20484;-77
2022/08/21 03:03:07;;;;;;;5.60;2.10;;;15.50;99.90;;;;;;5008639;28;20487;-76
2022/08/21 03:05:34;;;;;;;10.10;2.70;;;15.50;99.90;;;;;;5008606;28;20426;-76
2022/08/21 03:08:03;;;;;;;7.53;2.10;;;15.50;99.90;;;;;;5008706;28;20429;-76
2022/08/21 03:10:30;;;;;;;3.73;1.90;;;15.50;99.90;;;;;;4990862;28;20595;-75
2022/08/21 03:12:56;;;;;;;3.13;1.77;;;15.40;99.90;;;;;;5008786;28;20470;-75
2022/08/21 03:15:23;;;;;;;6.70;2.43;;;15.30;99.90;;;;;;5008572;28;20469;-75
2022/08/21 03:17:50;;;;;;;6.50;2.23;;;15.30;99.90;;;;;;5008759;28;20429;-75
2022/08/21 03:20:18;;;;;;;4.53;2.30;;;15.30;99.90;;;;;;5008636;28;20460;-75
2022/08/21 03:22:44;;;;;;;3.13;2.30;;;15.20;99.90;;;;;;5008752;28;20481;-75
2022/08/21 03:25:10;;;;;;;4.17;2.47;;;15.10;99.90;;;;;;5008710;28;20798;-75
2022/08/21 03:27:37;;;;;;;3.50;2.30;;;15.00;99.90;;;;;;5008801;28;20217;-74
2022/08/21 03:30:05;;;;;;;4.23;2.07;;;15.10;99.90;;;;;;5008933;28;20495;-75
2022/08/21 03:32:31;;;;;;;7.90;3.10;;;15.10;99.90;;;;;;5008768;28;20435;-74
2022/08/21 03:34:57;;;;;;;3.10;2.50;;;15.10;99.90;;;;;;5009257;28;20425;-74
2022/08/21 03:37:24;;;;;;;8.10;3.40;;;15.10;99.90;;;;;;4975313;28;20520;-74
2022/08/21 03:39:50;;;;;;;6.90;2.57;;;15.10;99.90;;;;;;5009266;28;20428;-74
2022/08/21 03:42:16;;;;;;;3.77;2.53;;;15.10;99.90;;;;;;5009197;28;20439;-74
2022/08/21 03:44:41;;;;;;;5.40;2.40;;;15.00;99.90;;;;;;5009225;28;20430;-74
2022/08/21 03:47:07;;;;;;;7.90;2.27;;;14.90;99.90;;;;;;5009202;28;20191;-74
2022/08/21 03:49:33;;;;;;;3.80;2.37;;;14.90;99.90;;;;;;5009266;28;20202;-73
2022/08/21 03:51:59;;;;;;;3.33;2.27;;;14.90;99.90;;;;;;5009131;28;20498;-73
2022/08/21 03:54:25;;;;;;;4.33;2.30;;;14.80;99.90;;;;;;5009165;28;20604;-73
2022/08/21 03:56:51;;;;;;;7.37;3.07;;;14.70;99.90;;;;;;5009118;28;20449;-73
2022/08/21 03:59:17;;;;;;;4.90;2.53;;;14.60;99.90;;;;;;4991315;28;20453;-73
2022/08/21 04:02:13;;;;;;;5.03;2.40;;;14.70;99.90;;;;;;5010663;28;20497;-73
2022/08/21 04:04:39;;;;;;;5.43;2.30;;;14.80;99.90;;;;;;4996138;28;20721;-73
2022/08/21 04:07:04;;;;;;;5.93;2.30;;;14.80;99.90;;;;;;4994822;28;20416;-73
2022/08/21 04:09:30;;;;;;;5.03;2.20;;;14.80;99.90;;;;;;4994873;28;20215;-73
2022/08/21 04:11:58;;;;;;;6.27;2.07;;;14.90;99.90;;;;;;5012658;28;20205;-73
2022/08/21 04:14:23;;;;;;;6.93;2.53;;;14.90;99.90;;;;;;5012347;28;20182;-73
2022/08/21 04:16:49;;;;;;;4.83;2.47;;;15.00;99.90;;;;;;5012224;28;20832;-73
2022/08/21 04:19:15;;;;;;;8.70;2.80;;;14.80;99.90;;;;;;5012084;28;20273;-73
2022/08/21 04:21:42;;;;;;;9.80;2.67;;;14.80;99.90;;;;;;5011890;28;20185;-73
2022/08/21 04:24:09;;;;;;;3.07;2.60;;;14.70;99.90;;;;;;5011597;28;20416;-73
2022/08/21 04:26:36;;;;;;;5.60;2.37;;;14.80;99.90;;;;;;5011414;28;20444;-73
2022/08/21 04:29:04;;;;;;;4.73;2.77;;;14.70;99.90;;;;;;5011214;28;20464;-74
2022/08/21 04:31:30;;;;;;;5.30;2.80;;;14.80;99.90;;;;;;4993470;28;20888;-74
2022/08/21 04:33:56;;;;;;;5.60;2.60;;;14.80;99.90;;;;;;4977230;28;20425;-75
2022/08/21 04:36:22;;;;;;;3.13;2.70;;;14.80;99.90;;;;;;5011162;28;20178;-74
2022/08/21 04:38:48;;;;;;;8.57;2.70;;;14.90;99.90;;;;;;5011253;28;20449;-74
2022/08/21 04:41:14;;;;;;;4.63;2.50;;;14.80;99.90;;;;;;5011499;28;20414;-76
2022/08/21 04:43:40;;;;;;;4.83;2.53;;;14.80;99.90;;;;;;5010889;28;20224;-76
2022/08/21 04:46:05;;;;;;;6.20;2.40;;;14.80;99.90;;;;;;4993137;28;20805;-76
2022/08/21 04:48:32;;;;;;;6.33;2.37;;;14.80;99.90;;;;;;4993142;28;20685;-75
2022/08/21 04:51:23;;;;;;;5.20;2.87;;;14.70;99.90;;;;;;5010711;28;20229;-75
2022/08/21 04:53:53;;;;;;;7.00;2.50;;;14.70;99.90;;;;;;5010777;28;20419;-75
2022/08/21 04:56:26;;;;;;;8.20;3.00;;;14.70;99.90;;;;;;5010803;28;20842;-75
2022/08/21 04:58:55;;;;;;;3.37;2.80;;;14.60;99.90;;;;;;5010548;28;20443;-75
2022/08/21 05:01:24;;;;;;;5.93;2.60;;;14.60;99.90;;;;;;4992712;28;20448;-75
2022/08/21 05:03:55;;;;;;;6.47;2.40;;;14.70;99.90;;;;;;4976589;28;20433;-76
2022/08/21 05:06:21;;;;;;;4.60;2.40;;;14.70;99.90;;;;;;5010736;28;20408;-76
2022/08/21 05:08:49;;;;;;;8.70;3.53;;;14.70;99.90;;;;;;5010459;28;20420;-75
2022/08/21 05:11:15;;;;;;;6.03;2.83;;;14.70;99.90;;;;;;4992838;28;20476;-75
2022/08/21 05:13:41;;;;;;;7.23;3.30;;;14.70;99.90;;;;;;4991576;28;20556;-75
2022/08/21 05:16:07;;;;;;;8.40;2.20;;;14.70;99.90;;;;;;5010437;28;20193;-75
2022/08/21 05:18:32;;;;;;;3.03;2.67;;;14.70;99.90;;;;;;5010382;28;20836;-75
2022/08/21 05:20:58;;;;;;;4.63;3.00;;;14.60;99.90;;;;;;4992700;28;20424;-75
2022/08/21 05:23:24;;;;;;;6.13;2.70;;;14.70;99.90;;;;;;5010240;28;20206;-75
2022/08/21 05:25:51;;;;;;;2.83;2.60;;;14.60;99.90;;;;;;5010251;28;20174;-75
2022/08/21 05:28:17;;;;;;;7.87;2.73;;;14.60;99.90;;;;;;5010182;28;20426;-74
2022/08/21 05:30:44;;;;;;;5.83;3.30;;;14.60;99.90;;;;;;5010040;28;20534;-75
2022/08/21 05:33:10;;;;;;;5.13;2.50;;;14.70;99.90;;;;;;5009912;28;20437;-76
2022/08/21 05:35:37;;;;;;;3.77;2.77;;;14.80;99.90;;;;;;5009990;28;20511;-75
2022/08/21 05:38:03;;;;;;;7.90;3.00;;;14.90;99.90;;;;;;5010078;28;20419;-76
2022/08/21 05:40:30;;;;;;;5.60;3.03;;;15.00;99.90;;;;;;5010204;28;20923;-74
2022/08/21 05:42:56;;;;;;;10.20;2.47;;;15.10;99.90;;;;;;5010368;28;20444;-73
2022/08/21 05:45:24;;;;;;;5.47;3.20;;;15.20;99.90;;;;;;5010533;28;20535;-73
2022/08/21 05:47:49;;;;;;;6.50;3.37;;;15.40;99.90;;;;;;4992805;28;20440;-72
2022/08/21 05:50:15;;;;;;;5.30;3.10;;;15.60;99.90;;;;;;5010235;28;20563;-73
2022/08/21 05:52:40;;;;;;;7.20;2.80;;;15.70;99.90;;;;;;4976280;28;20575;-73
2022/08/21 05:55:06;;;;;;;9.13;3.30;;;15.90;99.90;;;;;;5010264;28;20183;-73
2022/08/21 05:57:32;;;;;;;3.27;2.57;;;16.00;99.90;;;;;;5010270;28;20183;-73
2022/08/21 05:59:58;;;;;;;9.00;2.50;;;16.10;99.90;;;;;;5010871;28;20452;-73
2022/08/21 06:02:23;;;;;;;15.00;3.20;;;16.30;99.90;;;;;;4992515;28;20223;-73
2022/08/21 06:04:49;;;;;;;4.53;2.30;;;16.50;99.90;;;;;;5010452;28;20604;-73
2022/08/21 06:07:15;;;;;;;3.90;2.03;;;16.70;99.90;;;;;;5010363;28;20184;-73
2022/08/21 06:09:41;;;;;;;5.43;2.00;;;16.80;99.90;;;;;;5010072;28;20465;-73
2022/08/21 06:12:09;;;;;;;3.53;2.53;;;16.90;99.90;;;;;;4992565;28;20304;-73
2022/08/21 06:14:37;;;;;;;11.13;2.63;;;16.90;99.90;;;;;;5010148;28;20407;-73
2022/08/21 06:17:12;;;;;;;6.33;2.23;;;17.10;99.90;;;;;;5009906;28;20848;-73
2022/08/21 06:19:38;;;;;;;7.40;2.33;;;17.10;99.90;;;;;;5010076;28;20405;-73
2022/08/21 06:22:04;;;;;;;4.27;2.63;;;17.20;99.90;;;;;;5010156;28;20446;-73
2022/08/21 06:24:30;;;;;;;7.93;2.50;;;17.30;99.90;;;;;;5009560;28;20516;-74
2022/08/21 06:26:56;;;;;;;5.10;2.37;;;17.40;99.90;;;;;;5010334;28;20506;-77
2022/08/21 06:29:23;;;;;;;4.77;2.73;;;17.60;99.90;;;;;;4976709;28;20581;-77
2022/08/21 06:31:50;;;;;;;7.87;2.80;;;17.70;99.90;;;;;;4977406;28;20212;-77
2022/08/21 06:34:17;;;;;;;2.90;2.50;;;17.80;99.90;;;;;;5011081;28;20411;-77
2022/08/21 06:36:42;;;;;;;6.47;2.80;;;17.90;99.90;;;;;;5010632;28;20764;-78
2022/08/21 06:39:08;;;;;;;5.93;2.97;;;17.90;99.90;;;;;;5012122;28;20422;-76
2022/08/21 06:41:34;;;;;;;6.40;2.53;;;18.10;99.90;;;;;;5011832;28;20340;-76
2022/08/21 06:43:59;;;;;;;4.10;2.23;;;18.10;99.90;;;;;;5011775;28;20255;-77
2022/08/21 06:46:28;;;;;;;6.60;3.23;;;18.30;99.90;;;;;;5010458;28;20192;-77
2022/08/21 06:48:54;;;;;;;8.63;2.33;;;18.40;99.90;;;;;;5010396;28;20312;-76
2022/08/21 06:51:20;;;;;;;5.03;2.67;;;18.40;99.90;;;;;;4992173;28;20813;-76
2022/08/21 06:53:46;;;;;;;4.87;2.23;;;18.40;99.90;;;;;;5010029;28;20443;-77
2022/08/21 06:56:11;;;;;;;6.53;2.60;;;18.40;99.90;;;;;;4992603;28;20458;-76
2022/08/21 06:58:37;;;;;;;6.47;2.50;;;18.40;99.90;;;;;;4992034;28;20191;-76
2022/08/21 07:01:04;;;;;;;10.50;2.70;;;18.40;99.90;;;;;;4991789;28;20195;-76
2022/08/21 07:03:33;;;;;;;5.57;3.03;;;18.50;99.90;;;;;;5009668;28;20443;-76
2022/08/21 07:05:59;;;;;;;8.13;2.43;;;18.50;99.90;;;;;;5011941;28;20423;-76
2022/08/21 07:08:27;;;;;;;4.80;2.17;;;18.50;99.90;;;;;;5012989;28;20424;-77
2022/08/21 07:10:56;;;;;;;6.73;2.70;;;18.40;99.90;;;;;;5011907;28;20467;-75
2022/08/21 07:13:23;;;;;;;4.20;2.50;;;18.40;99.90;;;;;;5009485;28;20521;-75
2022/08/21 07:15:48;;;;;;;5.13;2.80;;;18.40;99.90;;;;;;5009719;28;20521;-75
2022/08/21 07:18:15;;;;;;;6.83;2.67;;;18.50;99.90;;;;;;4991961;28;20925;-75
2022/08/21 07:20:41;;;;;;;4.00;2.47;;;18.50;99.90;;;;;;5009433;28;20183;-75
2022/08/21 07:23:32;;;;;;;7.30;2.90;;;18.40;99.90;;;;;;4975495;28;20440;-75
2022/08/21 07:26:00;;;;;;;4.77;2.30;;;18.60;99.90;;;;;;5009511;28;20526;-76
2022/08/21 07:28:26;;;;;;;4.97;2.13;;;18.70;99.90;;;;;;4991611;28;20440;-76
2022/08/21 07:30:55;;;;;;;5.77;2.70;;;18.70;99.90;;;;;;5009096;28;20474;-76
2022/08/21 07:33:21;;;;;;;5.77;2.80;;;18.70;99.90;;;;;;4991541;28;20531;-75
2022/08/21 07:35:46;;;;;;;6.17;2.67;;;18.80;99.90;;;;;;5009714;28;20518;-75
2022/08/21 07:38:12;;;;;;;4.20;2.00;;;18.90;99.90;;;;;;4994887;28;20188;-75
2022/08/21 07:40:38;;;;;;;4.23;2.13;;;19.00;99.90;;;;;;5012537;28;20181;-75
2022/08/21 07:43:04;;;;;;;4.20;2.20;;;19.10;99.90;;;;;;4994582;28;20214;-75
2022/08/21 07:45:30;;;;;;;8.40;2.50;;;19.20;99.90;;;;;;5012388;28;20929;-75
2022/08/21 07:47:55;;;;;;;6.50;2.60;;;19.40;99.90;;;;;;5012556;28;20541;-75
2022/08/21 07:50:21;;;;;;;4.80;2.63;;;19.30;99.90;;;;;;4995204;28;20221;-75
2022/08/21 07:52:47;;;;;;;4.10;2.20;;;19.30;99.90;;;;;;5012610;28;20566;-75
2022/08/21 07:55:17;;;;;;;4.53;2.67;;;19.40;99.90;;;;;;5012117;28;20435;-75
2022/08/21 07:57:44;;;;;;;8.80;2.80;;;19.40;99.90;;;;;;5012021;28;20318;-75
2022/08/21 08:00:14;;;;;;;6.77;2.77;;;19.50;99.90;;;;;;4994336;28;20452;-75
2022/08/21 08:02:43;;;;;;;9.27;2.80;;;19.60;99.90;;;;;;4978473;28;21340;-75
2022/08/21 08:05:11;;;;;;;5.20;2.80;;;19.80;99.90;;;;;;5011901;28;20419;-75
2022/08/21 08:07:37;;;;;;;4.33;2.67;;;19.90;99.90;;;;;;5011808;28;20780;-76
2022/08/21 08:10:04;;;;;;;6.87;4.00;;;20.00;99.90;;;;;;4994139;28;20939;-74
2022/08/21 08:12:30;;;;;;;7.97;2.67;;;20.00;99.90;;;;;;5011652;28;20915;-75
2022/08/21 08:14:57;;;;;;;5.43;2.43;;;20.10;99.90;;;;;;5011783;28;20427;-75
2022/08/21 08:17:23;;;;;;;8.20;3.13;;;20.20;99.90;;;;;;5011493;28;20185;-75
2022/08/21 08:19:49;;;;;;;10.53;3.30;;;20.20;99.90;;;;;;5011474;28;20945;-76
2022/08/21 08:22:21;;;;;;;7.00;2.57;;;20.30;99.90;;;;;;4993785;28;20447;-76
2022/08/21 08:24:48;;;;;;;6.80;2.93;;;20.30;99.90;;;;;;4993529;28;20427;-75
2022/08/21 08:27:14;;;;;;;5.27;2.47;;;20.30;99.90;;;;;;4993552;28;20427;-76
2022/08/21 08:29:40;;;;;;;7.03;2.80;;;20.40;99.90;;;;;;5011179;28;20455;-76
2022/08/21 08:32:09;;;;;;;11.60;2.77;;;20.50;99.90;;;;;;5011123;28;20535;-76
2022/08/21 08:34:35;;;;;;;5.43;3.10;;;20.60;99.90;;;;;;5011257;28;20181;-76
2022/08/21 08:37:02;;;;;;;8.33;3.17;;;20.80;99.90;;;;;;5011015;28;20412;-75
2022/08/21 08:39:28;;;;;;;5.10;2.63;;;20.80;99.90;;;;;;4993159;28;20427;-75
2022/08/21 08:42:13;;;;;;;6.50;2.50;;;20.90;99.90;;;;;;5010890;28;20440;-75
2022/08/21 08:44:45;;;;;;;11.47;3.30;;;21.00;99.90;;;;;;5010959;28;20684;-75
2022/08/21 08:47:18;;;;;;;6.83;3.00;;;21.10;99.90;;;;;;5010652;28;20427;-75
2022/08/21 08:49:58;;;;;;;6.20;2.80;;;21.40;99.90;;;;;;5010798;28;20785;-75
2022/08/21 08:52:43;;;;;;;6.97;3.07;;;21.50;99.90;;;;;;5010866;28;20522;-75
2022/08/21 08:55:14;;;;;;;6.73;3.30;;;21.70;99.90;;;;;;5010778;28;20462;-75
2022/08/21 08:57:47;;;;;;;6.90;3.07;;;21.70;99.90;;;;;;5011196;28;20421;-76
2022/08/21 09:00:16;;;;;;;10.87;3.03;;;21.90;99.90;;;;;;4993471;28;20432;-75
2022/08/21 09:02:43;;;;;;;5.33;2.90;;;22.10;99.90;;;;;;5009542;28;20465;-74
2022/08/21 09:05:21;;;;;;;8.40;3.30;;;22.40;99.90;;;;;;5009389;28;20428;-77
2022/08/21 09:08:13;;;;;;;5.83;3.30;;;22.60;99.90;;;;;;5010011;28;20424;-78
2022/08/21 09:10:48;;;;;;;4.23;3.33;;;22.80;99.90;;;;;;5010192;28;21083;-77
2022/08/21 09:13:39;;;;;;;5.17;2.83;;;23.10;99.90;;;;;;5009543;28;20433;-74
2022/08/21 09:16:42;;;;;;;8.73;3.13;;;23.30;99.90;;;;;;5009452;28;20408;-75
2022/08/21 09:19:20;;;;;;;13.40;3.53;;;23.50;99.90;;;;;;5005584;28;20442;-76
2022/08/21 09:22:03;;;;;;;4.07;3.23;;;23.70;99.90;;;;;;5009459;28;20438;-76
2022/08/21 09:24:46;;;;;;;5.67;2.73;;;24.10;99.90;;;;;;5009522;28;20402;-76
2022/08/21 09:27:15;;;;;;;6.03;2.73;;;24.50;99.90;;;;;;4991811;28;21264;-76
2022/08/21 09:29:44;;;;;;;9.73;3.13;;;24.60;98.00;;;;;;5009429;28;20453;-76
2022/08/21 09:32:19;;;;;;;5.63;3.10;;;25.00;99.30;;;;;;5009579;28;20437;-74
2022/08/21 09:35:06;;;;;;;6.40;3.50;;;25.20;95.80;;;;;;5010767;28;20787;-77
2022/08/21 09:37:44;;;;;;;6.07;3.57;;;25.50;95.30;;;;;;4992409;28;20504;-77
2022/08/21 09:40:43;;;;;;;8.00;2.93;;;25.90;94.40;;;;;;4993839;28;20521;-77
2022/08/21 09:43:16;;;;;;;8.00;3.47;;;26.30;93.10;;;;;;4997793;28;20455;-77
2022/08/21 09:45:44;;;;;;;7.90;3.40;;;26.60;85.80;;;;;;5012938;28;20431;-78
2022/08/21 09:48:21;;;;;;;8.27;3.30;;;26.90;85.10;;;;;;4995332;28;20426;-78
2022/08/21 09:50:49;;;;;;;9.30;3.37;;;27.00;85.20;;;;;;5012495;28;20498;-78
2022/08/21 09:53:42;;;;;;;3.93;3.10;;;27.30;84.80;;;;;;4995121;28;20458;-77
2022/08/21 09:59:33;;;;;;;8.47;3.07;;;27.80;81.90;;;;;;5011450;28;20501;-77
2022/08/21 10:02:01;;;;;;;10.83;3.70;;;27.90;81.90;;;;;;5011402;28;20510;-77
2022/08/21 10:04:51;;;;;;;7.80;4.07;;;28.00;83.00;;;;;;5010625;28;20427;-78
2022/08/21 10:07:21;;;;;;;5.60;3.07;;;28.10;79.00;;;;;;4993220;28;20424;-77
2022/08/21 10:09:58;;;;;;;10.17;3.17;;;28.20;75.90;;;;;;4992818;28;20468;-77
2022/08/21 10:12:46;;;;;;;5.93;3.07;;;28.50;77.50;;;;;;5010460;28;20443;-77
2022/08/21 10:15:34;;;;;;;6.57;3.60;;;28.50;76.80;;;;;;5010711;28;20871;-78
2022/08/21 10:18:18;;;;;;;6.50;3.50;;;28.70;75.90;;;;;;5011088;28;20422;-77
2022/08/21 10:21:02;;;;;;;5.47;2.97;;;28.50;76.50;;;;;;5010515;28;20448;-77
2022/08/21 10:23:50;;;;;;;6.83;3.23;;;28.70;74.80;;;;;;5010245;28;20432;-77
2022/08/21 10:26:52;;;;;;;6.67;3.60;;;29.00;76.20;;;;;;5010358;28;20419;-77
2022/08/21 10:29:35;;;;;;;4.70;3.27;;;29.00;74.00;;;;;;5009927;28;20465;-77
2022/08/21 10:32:13;;;;;;;4.80;3.17;;;29.00;71.30;;;;;;4991968;28;20579;-78
2022/08/21 10:35:03;;;;;;;8.77;3.40;;;29.20;71.90;;;;;;5009705;28;20892;-78
2022/08/21 10:37:56;;;;;;;5.77;3.30;;;29.20;72.70;;;;;;4991819;28;20524;-77
2022/08/21 10:40:33;;;;;;;8.90;3.20;;;29.30;72.10;;;;;;5009775;28;20543;-77
2022/08/21 10:43:04;;;;;;;5.90;3.07;;;29.40;71.80;;;;;;4992137;28;20548;-78
2022/08/21 10:45:53;;;;;;;4.70;2.80;;;29.60;72.30;;;;;;5010219;28;20427;-77
2022/08/21 10:48:29;;;;;;;7.13;3.10;;;29.60;70.80;;;;;;4981711;28;20420;-77
2022/08/21 10:51:30;;;;;;;4.77;3.00;;;29.70;70.30;;;;;;5009908;28;20468;-77
2022/08/21 10:54:01;;;;;;;7.07;2.97;;;29.80;67.90;;;;;;5005863;28;20796;-77
2022/08/21 10:56:38;;;;;;;6.57;3.27;;;29.90;66.50;;;;;;5009450;28;20449;-77
2022/08/21 10:59:25;;;;;;;7.73;3.00;;;29.90;68.70;;;;;;5009586;28;20408;-77
2022/08/21 11:02:20;;;;;;;5.07;2.93;;;29.80;69.10;;;;;;5009378;28;20470;-77
2022/08/21 11:05:07;;;;;;;4.00;2.83;;;29.90;66.90;;;;;;5009285;28;20463;-77
2022/08/21 11:07:43;;;;;;;4.10;2.97;;;30.00;66.70;;;;;;5009387;28;20407;-77
2022/08/21 11:10:25;;;;;;;5.23;3.07;;;29.90;65.80;;;;;;5010472;28;20499;-76
2022/08/21 11:13:01;;;;;;;5.50;2.80;;;30.10;66.00;;;;;;5013122;28;20959;-77
2022/08/21 11:15:34;;;;;;;5.33;2.97;;;30.10;67.80;;;;;;5013091;28;20412;-77
2022/08/21 11:18:30;;;;;;;4.60;2.67;;;30.20;67.10;;;;;;5013496;28;20419;-77
2022/08/21 11:21:06;;;;;;;4.00;2.53;;;30.30;65.20;;;;;;4995478;28;20807;-77
2022/08/21 11:23:40;;;;;;;6.47;3.57;;;30.40;65.40;;;;;;5013059;28;20438;-77
2022/08/21 11:26:20;;;;;;;15.43;3.90;;;30.20;61.70;;;;;;5014103;28;20416;-76
2022/08/21 11:28:59;;;;;;;4.83;2.30;;;30.10;63.20;;;;;;5014815;28;21008;-77
2022/08/21 11:31:48;;;;;;;2.93;2.50;;;29.70;63.10;;;;;;5014860;28;20426;-77
2022/08/21 11:34:51;;;;;;;4.40;2.80;;;30.10;63.70;;;;;;5014338;28;20858;-77
2022/08/21 11:37:48;;;;;;;5.13;2.67;;;30.10;59.80;;;;;;4996523;28;20955;-77
2022/08/21 11:40:38;;;;;;;3.47;2.60;;;30.00;62.40;;;;;;4996660;28;21224;-77
2022/08/21 11:43:12;;;;;;;5.93;2.90;;;30.10;63.40;;;;;;5013966;28;20439;-77
2022/08/21 11:45:46;;;;;;;5.83;2.60;;;30.20;61.70;;;;;;5013970;28;20408;-78
2022/08/21 11:48:33;;;;;;;4.73;2.37;;;30.20;60.50;;;;;;5014331;28;20422;-77
2022/08/21 11:51:03;;;;;;;3.67;2.60;;;30.30;61.40;;;;;;5013609;28;20474;-77
2022/08/21 11:53:37;;;;;;;5.30;2.70;;;30.20;60.80;;;;;;5014073;28;20443;-77
2022/08/21 11:56:16;;;;;;;4.53;2.57;;;30.40;61.30;;;;;;4995972;28;20469;-78
2022/08/21 11:58:47;;;;;;;3.03;2.27;;;30.20;60.10;;;;;;4995815;28;20522;-77
2022/08/21 12:01:23;;;;;;;3.17;2.30;;;30.20;61.30;;;;;;5012967;28;20423;-77
2022/08/21 12:03:57;;;;;;;3.33;2.67;;;30.20;59.70;;;;;;5012917;28;20436;-77
2022/08/21 12:06:40;;;;;;;2.97;2.30;;;30.40;61.70;;;;;;5012388;28;20760;-77
2022/08/21 12:09:27;;;;;;;5.37;2.77;;;30.30;59.90;;;;;;4995348;28;20925;-77
2022/08/21 12:12:22;;;;;;;7.83;3.30;;;30.60;60.10;;;;;;4994451;28;20447;-76
2022/08/21 12:14:51;;;;;;;3.10;2.50;;;30.50;59.20;;;;;;4996137;28;20428;-77
2022/08/21 12:17:18;;;;;;;9.30;3.40;;;30.40;60.60;;;;;;4995008;28;20432;-77
2022/08/21 12:19:44;;;;;;;6.40;3.20;;;30.40;58.80;;;;;;5011882;28;20434;-77
2022/08/21 12:22:13;;;;;;;6.10;3.23;;;30.30;60.00;;;;;;5011675;28;20945;-77
2022/08/21 12:25:02;;;;;;;6.70;3.40;;;30.50;58.80;;;;;;5012276;28;20412;-77
2022/08/21 12:28:01;;;;;;;3.63;2.57;;;30.40;57.60;;;;;;4994325;28;20948;-77
2022/08/21 12:30:28;;;;;;;3.57;2.90;;;30.50;59.50;;;;;;5007250;28;20484;-77
2022/08/21 12:32:58;;;;;;;5.37;3.00;;;30.50;59.40;;;;;;5012452;28;20859;-77
2022/08/21 12:35:30;;;;;;;3.77;2.10;;;30.60;58.80;;;;;;5012254;28;20212;-77
2022/08/21 12:38:12;;;;;;;5.27;2.80;;;30.70;58.90;;;;;;4994988;28;20804;-77
2022/08/21 12:40:47;;;;;;;5.30;2.60;;;30.70;57.90;;;;;;5012226;28;20957;-77
2022/08/21 12:43:18;;;;;;;7.10;3.27;;;30.70;57.90;;;;;;5011973;28;20455;-77
2022/08/21 12:45:50;;;;;;;8.73;2.60;;;30.60;58.70;;;;;;5011522;28;20455;-79
2022/08/21 12:48:23;;;;;;;4.67;3.07;;;30.50;57.90;;;;;;5012465;28;20474;-79
2022/08/21 12:51:05;;;;;;;5.77;3.17;;;30.40;58.40;;;;;;5011624;28;20467;-79
2022/08/21 12:53:41;;;;;;;4.23;3.10;;;30.60;57.40;;;;;;4993584;28;20448;-79
2022/08/21 12:56:16;;;;;;;4.90;2.70;;;30.40;58.10;;;;;;5011656;28;20465;-79
2022/08/21 12:58:53;;;;;;;5.07;2.30;;;30.20;57.90;;;;;;5011403;28;20400;-79
2022/08/21 13:01:38;;;;;;;4.47;2.73;;;30.10;57.60;;;;;;5010682;28;20944;-79
2022/08/21 13:04:12;;;;;;;4.27;2.20;;;30.00;56.70;;;;;;5010830;28;20417;-79
2022/08/21 13:06:48;;;;;;;7.27;3.00;;;30.00;59.00;;;;;;4993118;28;20458;-79
2022/08/21 13:09:18;;;;;;;2.43;2.23;;;30.00;56.60;;;;;;4993142;28;20439;-79